createdAt,value
2023-02-16T00:00:06.341Z,2.24
2023-02-16T00:01:22.219Z,2.14
2023-02-16T00:02:26.660Z,2.06
2023-02-16T00:03:32.980Z,2.12
2023-02-16T00:04:37.606Z,2.11
2023-02-16T00:05:40.479Z,2.13
2023-02-16T00:06:46.017Z,2.16
2023-02-16T00:07:49.344Z,2.20
2023-02-16T00:08:54.467Z,2.10
2023-02-16T00:09:57.529Z,2.12
2023-02-16T00:11:19.524Z,2.14
2023-02-16T00:12:41.732Z,2.19
2023-02-16T00:13:48.912Z,2.21
2023-02-16T00:14:52.192Z,2.11
2023-02-16T00:15:55.581Z,2.17
2023-02-16T00:17:00.051Z,2.15
2023-02-16T00:18:05.240Z,2.13
2023-02-16T00:19:12.467Z,2.15
2023-02-16T00:20:19.322Z,2.16
2023-02-16T00:21:23.454Z,2.18
2023-02-16T00:22:27.508Z,2.19
2023-02-16T00:23:30.882Z,2.21
2023-02-16T00:24:34.142Z,2.20
2023-02-16T00:25:38.005Z,2.20
2023-02-16T00:26:43.384Z,2.18
2023-02-16T00:27:47.513Z,2.19
2023-02-16T00:28:52.901Z,2.15
2023-02-16T00:29:57.583Z,2.16
2023-02-16T00:31:01.679Z,2.19
2023-02-16T00:32:05.903Z,2.14
2023-02-16T00:33:16.937Z,2.17
2023-02-16T00:34:28.396Z,2.18
2023-02-16T00:35:33.568Z,2.17
2023-02-16T00:36:36.972Z,2.14
2023-02-16T00:37:40.286Z,2.15
2023-02-16T00:38:43.393Z,2.18
2023-02-16T00:39:46.533Z,2.15
2023-02-16T00:40:50.153Z,2.15
2023-02-16T00:41:54.484Z,2.18
2023-02-16T00:42:58.128Z,2.17
2023-02-16T00:44:02.028Z,2.20
2023-02-16T00:45:08.724Z,2.20
2023-02-16T00:46:14.764Z,2.23
2023-02-16T00:47:25.228Z,2.21
2023-02-16T00:48:28.534Z,2.19
2023-02-16T00:49:31.711Z,2.19
2023-02-16T00:50:35.703Z,2.16
2023-02-16T00:51:38.878Z,2.15
2023-02-16T00:52:43.570Z,2.13
2023-02-16T00:53:49.216Z,2.12
2023-02-16T00:54:51.376Z,2.14
2023-02-16T00:55:58.436Z,2.12
2023-02-16T00:57:01.890Z,2.09
2023-02-16T00:58:06.087Z,2.10
2023-02-16T00:59:14.390Z,2.13
2023-02-16T01:00:19.149Z,2.13
2023-02-16T01:01:24.494Z,2.04
2023-02-16T01:02:29.186Z,2.07
2023-02-16T01:03:32.366Z,2.09
2023-02-16T01:04:35.836Z,2.07
2023-02-16T01:05:39.283Z,2.08
2023-02-16T01:07:01.412Z,2.03
2023-02-16T01:08:24.613Z,2.08
2023-02-16T01:09:45.571Z,2.04
2023-02-16T01:11:07.766Z,2.09
2023-02-16T01:12:12.834Z,2.11
2023-02-16T01:13:16.270Z,2.09
2023-02-16T01:14:19.959Z,2.09
2023-02-16T01:15:25.134Z,2.13
2023-02-16T01:16:30.730Z,2.14
2023-02-16T01:17:36.554Z,2.15
2023-02-16T01:18:41.108Z,2.16
2023-02-16T01:19:43.960Z,2.15
2023-02-16T01:20:49.104Z,2.15
2023-02-16T01:21:52.644Z,2.13
2023-02-16T01:22:56.557Z,2.08
2023-02-16T01:23:59.980Z,2.10
2023-02-16T01:25:03.891Z,2.08
2023-02-16T01:26:08.392Z,2.03
2023-02-16T01:27:14.817Z,1.96
2023-02-16T01:28:21.920Z,1.99
2023-02-16T01:29:24.578Z,2.04
2023-02-16T01:30:28.561Z,2.01
2023-02-16T01:31:33.286Z,2.02
2023-02-16T01:32:37.391Z,2.05
2023-02-16T01:33:43.126Z,2.01
2023-02-16T01:34:46.480Z,2.01
2023-02-16T01:35:50.736Z,1.97
2023-02-16T01:36:54.235Z,1.95
2023-02-16T01:37:57.536Z,1.92
2023-02-16T01:39:00.406Z,1.95
2023-02-16T01:40:07.557Z,1.94
2023-02-16T01:41:32.275Z,1.94
2023-02-16T01:42:55.539Z,1.94
2023-02-16T01:44:18.988Z,1.95
2023-02-16T01:45:24.988Z,1.99
2023-02-16T01:46:35.726Z,2.06
2023-02-16T01:47:41.810Z,2.03
2023-02-16T01:48:47.108Z,2.01
2023-02-16T01:49:49.883Z,1.98
2023-02-16T01:50:58.922Z,1.96
2023-02-16T01:52:04.518Z,1.98
2023-02-16T01:53:10.887Z,1.97
2023-02-16T01:54:20.806Z,1.94
2023-02-16T01:55:29.133Z,1.93
2023-02-16T01:56:42.995Z,1.88
2023-02-16T01:57:49.416Z,1.87
2023-02-16T01:58:56.243Z,1.91
2023-02-16T02:00:01.426Z,1.87
2023-02-16T02:01:08.280Z,1.87
2023-02-16T02:02:17.604Z,1.92
2023-02-16T02:03:43.478Z,1.91
2023-02-16T02:05:13.614Z,1.95
2023-02-16T02:06:18.909Z,1.94
2023-02-16T02:07:23.449Z,2.00
2023-02-16T02:08:31.768Z,2.02
2023-02-16T02:09:37.564Z,1.98
2023-02-16T02:10:53.402Z,1.95
2023-02-16T02:12:04.413Z,1.94
2023-02-16T02:13:23.706Z,1.95
2023-02-16T02:14:29.610Z,1.90
2023-02-16T02:15:35.626Z,1.91
2023-02-16T02:16:39.965Z,1.88
2023-02-16T02:17:42.319Z,1.89
2023-02-16T02:18:45.584Z,1.72
2023-02-16T02:19:51.023Z,1.80
2023-02-16T02:21:31.375Z,1.83
2023-02-16T02:23:08.079Z,1.81
2023-02-16T02:24:27.223Z,1.87
2023-02-16T02:25:50.611Z,1.82
2023-02-16T02:26:56.126Z,1.86
2023-02-16T02:28:01.493Z,1.83
2023-02-16T02:29:10.000Z,1.83
2023-02-16T02:30:32.732Z,1.83
2023-02-16T02:31:51.979Z,1.71
2023-02-16T02:32:59.267Z,1.71
2023-02-16T02:34:08.734Z,1.78
2023-02-16T02:35:26.169Z,1.78
2023-02-16T02:36:35.067Z,1.79
2023-02-16T02:37:45.779Z,1.79
2023-02-16T02:39:10.910Z,1.84
2023-02-16T02:40:23.834Z,1.86
2023-02-16T02:41:33.583Z,1.88
2023-02-16T02:42:40.119Z,1.90
2023-02-16T02:43:51.020Z,1.89
2023-02-16T02:44:56.135Z,1.88
2023-02-16T02:46:02.845Z,1.87
2023-02-16T02:47:06.453Z,1.86
2023-02-16T02:48:10.542Z,1.88
2023-02-16T02:49:14.824Z,1.87
2023-02-16T02:50:39.545Z,1.88
2023-02-16T02:51:45.238Z,1.86
2023-02-16T02:52:49.060Z,1.84
2023-02-16T02:54:28.072Z,1.83
2023-02-16T02:55:53.606Z,1.75
2023-02-16T02:57:20.297Z,1.79
2023-02-16T02:58:46.061Z,1.79
2023-02-16T03:00:10.248Z,1.78
2023-02-16T03:01:15.060Z,1.79
2023-02-16T03:02:19.937Z,1.72
2023-02-16T03:03:29.519Z,1.72
2023-02-16T03:04:35.330Z,1.76
2023-02-16T03:05:40.619Z,1.75
2023-02-16T03:06:45.060Z,1.73
2023-02-16T03:07:49.164Z,1.70
2023-02-16T03:08:54.610Z,1.75
2023-02-16T03:09:59.235Z,1.74
2023-02-16T03:11:23.321Z,1.76
2023-02-16T03:12:46.561Z,1.74
2023-02-16T03:13:53.785Z,1.74
2023-02-16T03:15:01.092Z,1.66
2023-02-16T03:16:06.801Z,1.68
2023-02-16T03:17:31.713Z,1.71
2023-02-16T03:18:54.588Z,1.73
2023-02-16T03:20:18.390Z,1.67
2023-02-16T03:21:42.074Z,1.69
2023-02-16T03:23:03.164Z,1.68
2023-02-16T03:24:27.098Z,1.68
2023-02-16T03:25:49.813Z,1.66
2023-02-16T03:27:11.817Z,1.62
2023-02-16T03:28:33.806Z,1.58
2023-02-16T03:29:37.841Z,1.61
2023-02-16T03:30:45.113Z,1.58
2023-02-16T03:31:49.353Z,1.56
2023-02-16T03:32:53.373Z,1.57
2023-02-16T03:33:56.973Z,1.54
2023-02-16T03:35:03.719Z,1.56
2023-02-16T03:36:07.758Z,1.59
2023-02-16T03:37:10.815Z,1.54
2023-02-16T03:38:17.409Z,1.51
2023-02-16T03:39:22.571Z,1.49
2023-02-16T03:40:31.523Z,1.51
2023-02-16T03:41:35.709Z,1.49
2023-02-16T03:42:39.021Z,1.46
2023-02-16T03:43:42.093Z,1.45
2023-02-16T03:44:45.230Z,1.45
2023-02-16T03:45:47.769Z,1.46
2023-02-16T03:46:51.463Z,1.72
2023-02-16T03:47:57.159Z,1.59
2023-02-16T03:49:02.686Z,1.56
2023-02-16T03:50:06.860Z,1.57
2023-02-16T03:51:10.495Z,1.58
2023-02-16T03:52:13.283Z,1.58
2023-02-16T03:53:17.507Z,1.58
2023-02-16T03:54:20.476Z,1.59
2023-02-16T03:55:24.667Z,1.56
2023-02-16T03:56:28.332Z,1.52
2023-02-16T03:57:31.513Z,1.53
2023-02-16T03:58:35.147Z,1.52
2023-02-16T03:59:40.351Z,1.50
2023-02-16T04:00:44.048Z,1.46
2023-02-16T04:01:47.665Z,1.47
2023-02-16T04:02:51.245Z,1.45
2023-02-16T04:03:54.367Z,1.40
2023-02-16T04:04:59.823Z,1.39
2023-02-16T04:06:03.333Z,1.41
2023-02-16T04:07:06.505Z,1.43
2023-02-16T04:08:10.396Z,1.46
2023-02-16T04:09:15.508Z,1.52
2023-02-16T04:10:18.183Z,1.50
2023-02-16T04:11:40.583Z,1.50
2023-02-16T04:12:44.618Z,1.50
2023-02-16T04:13:47.385Z,1.49
2023-02-16T04:14:50.798Z,1.50
2023-02-16T04:15:56.074Z,1.48
2023-02-16T04:16:59.474Z,1.47
2023-02-16T04:18:02.883Z,1.49
2023-02-16T04:19:08.260Z,1.48
2023-02-16T04:20:12.284Z,1.51
2023-02-16T04:21:17.149Z,1.46
2023-02-16T04:22:21.940Z,1.43
2023-02-16T04:23:24.276Z,1.46
2023-02-16T04:24:28.822Z,1.58
2023-02-16T04:25:31.490Z,1.52
2023-02-16T04:26:34.369Z,1.46
2023-02-16T04:27:37.663Z,1.47
2023-02-16T04:28:42.530Z,1.49
2023-02-16T04:29:46.232Z,1.49
2023-02-16T04:30:52.843Z,1.49
2023-02-16T04:31:57.132Z,1.48
2023-02-16T04:33:00.415Z,1.49
2023-02-16T04:34:04.595Z,1.52
2023-02-16T04:35:08.978Z,1.51
2023-02-16T04:36:12.475Z,1.52
2023-02-16T04:37:15.046Z,1.52
2023-02-16T04:38:19.307Z,1.51
2023-02-16T04:39:22.427Z,1.50
2023-02-16T04:40:25.354Z,1.52
2023-02-16T04:41:27.721Z,1.54
2023-02-16T04:42:31.203Z,1.52
2023-02-16T04:43:35.243Z,1.53
2023-02-16T04:44:39.477Z,1.56
2023-02-16T04:45:42.919Z,1.58
2023-02-16T04:46:46.698Z,1.54
2023-02-16T04:47:50.140Z,1.55
2023-02-16T04:48:53.602Z,1.50
2023-02-16T04:49:56.904Z,1.46
2023-02-16T04:51:02.364Z,1.54
2023-02-16T04:52:06.726Z,1.56
2023-02-16T04:53:10.127Z,1.57
2023-02-16T04:54:15.621Z,1.58
2023-02-16T04:55:18.602Z,1.59
2023-02-16T04:56:24.611Z,1.59
2023-02-16T04:57:27.174Z,1.60
2023-02-16T04:58:36.634Z,1.56
2023-02-16T04:59:39.930Z,1.61
2023-02-16T05:00:43.864Z,1.60
2023-02-16T05:01:47.595Z,1.55
2023-02-16T05:02:51.063Z,1.81
2023-02-16T05:03:54.897Z,2.06
2023-02-16T05:04:57.130Z,1.95
2023-02-16T05:06:00.661Z,1.74
2023-02-16T05:07:03.733Z,1.71
2023-02-16T05:08:06.303Z,1.66
2023-02-16T05:09:09.889Z,1.62
2023-02-16T05:10:13.570Z,1.56
2023-02-16T05:11:34.362Z,1.51
2023-02-16T05:12:56.148Z,1.54
2023-02-16T05:14:17.934Z,1.59
2023-02-16T05:15:21.751Z,1.60
2023-02-16T05:16:25.670Z,1.78
2023-02-16T05:17:28.150Z,2.08
2023-02-16T05:18:34.199Z,2.21
2023-02-16T05:19:40.934Z,2.03
2023-02-16T05:21:02.817Z,1.88
2023-02-16T05:22:06.269Z,1.77
2023-02-16T05:23:10.466Z,1.74
2023-02-16T05:24:13.705Z,1.68
2023-02-16T05:25:15.970Z,1.65
2023-02-16T05:26:19.461Z,1.63
2023-02-16T05:27:26.728Z,1.60
2023-02-16T05:28:30.899Z,1.63
2023-02-16T05:29:34.679Z,1.55
2023-02-16T05:30:44.883Z,1.55
2023-02-16T05:31:47.719Z,1.63
2023-02-16T05:32:52.291Z,1.62
2023-02-16T05:33:56.100Z,1.61
2023-02-16T05:34:59.401Z,1.64
2023-02-16T05:36:02.290Z,1.68
2023-02-16T05:37:05.616Z,1.67
2023-02-16T05:38:08.238Z,1.69
2023-02-16T05:39:11.750Z,1.70
2023-02-16T05:40:15.069Z,1.72
2023-02-16T05:41:28.473Z,1.69
2023-02-16T05:42:31.884Z,1.70
2023-02-16T05:43:35.440Z,1.76
2023-02-16T05:44:38.302Z,1.76
2023-02-16T05:45:42.610Z,1.78
2023-02-16T05:46:46.930Z,1.78
2023-02-16T05:47:50.445Z,1.79
2023-02-16T05:48:53.750Z,1.81
2023-02-16T05:49:57.037Z,1.83
2023-02-16T05:51:00.354Z,1.81
2023-02-16T05:52:04.569Z,1.79
2023-02-16T05:53:07.615Z,1.80
2023-02-16T05:54:14.922Z,1.79
2023-02-16T05:55:20.099Z,1.84
2023-02-16T05:56:24.250Z,1.85
2023-02-16T05:57:26.599Z,1.88
2023-02-16T05:58:29.922Z,1.93
2023-02-16T05:59:33.179Z,1.97
2023-02-16T06:00:38.576Z,1.99
2023-02-16T06:01:41.355Z,1.97
2023-02-16T06:02:44.688Z,1.93
2023-02-16T06:03:48.623Z,2.01
2023-02-16T06:04:51.894Z,2.01
2023-02-16T06:06:00.512Z,2.00
2023-02-16T06:07:06.492Z,2.05
2023-02-16T06:08:10.411Z,2.03
2023-02-16T06:09:13.085Z,2.07
2023-02-16T06:10:17.836Z,2.09
2023-02-16T06:11:36.322Z,2.08
2023-02-16T06:12:44.804Z,2.12
2023-02-16T06:13:49.360Z,2.20
2023-02-16T06:14:56.196Z,2.22
2023-02-16T06:15:59.969Z,2.19
2023-02-16T06:17:03.217Z,2.21
2023-02-16T06:18:06.297Z,2.23
2023-02-16T06:19:10.350Z,2.07
2023-02-16T06:20:13.945Z,2.14
2023-02-16T06:21:17.341Z,2.19
2023-02-16T06:22:20.000Z,2.35
2023-02-16T06:23:23.295Z,2.37
2023-02-16T06:24:26.711Z,2.37
2023-02-16T06:25:30.107Z,2.39
2023-02-16T06:26:34.369Z,2.41
2023-02-16T06:27:37.628Z,2.43
2023-02-16T06:28:40.987Z,2.43
2023-02-16T06:29:44.545Z,2.32
2023-02-16T06:30:47.962Z,2.28
2023-02-16T06:31:51.439Z,2.40
2023-02-16T06:32:54.523Z,2.50
2023-02-16T06:33:57.945Z,2.55
2023-02-16T06:35:01.340Z,2.51
2023-02-16T06:36:05.514Z,2.48
2023-02-16T06:37:07.936Z,2.58
2023-02-16T06:38:11.540Z,2.63
2023-02-16T06:39:16.819Z,2.58
2023-02-16T06:40:20.537Z,2.70
2023-02-16T06:41:34.696Z,2.68
2023-02-16T06:42:38.609Z,2.71
2023-02-16T06:43:42.127Z,2.61
2023-02-16T06:44:45.421Z,2.46
2023-02-16T06:45:49.802Z,2.54
2023-02-16T06:46:53.634Z,2.53
2023-02-16T06:47:57.277Z,2.51
2023-02-16T06:49:00.271Z,2.44
2023-02-16T06:50:06.939Z,2.40
2023-02-16T06:51:10.414Z,2.37
2023-02-16T06:52:13.638Z,2.44
2023-02-16T06:53:17.204Z,2.26
2023-02-16T06:54:20.395Z,2.10
2023-02-16T06:55:23.637Z,2.09
2023-02-16T06:56:27.196Z,2.11
2023-02-16T06:57:29.344Z,1.99
2023-02-16T06:58:32.546Z,2.06
2023-02-16T06:59:35.310Z,2.20
2023-02-16T07:00:40.636Z,2.28
2023-02-16T07:01:45.312Z,2.38
2023-02-16T07:02:48.064Z,2.30
2023-02-16T07:03:51.667Z,2.19
2023-02-16T07:04:55.033Z,2.15
2023-02-16T07:06:01.257Z,2.08
2023-02-16T07:07:05.244Z,2.16
2023-02-16T07:08:09.104Z,2.26
2023-02-16T07:09:13.039Z,2.20
2023-02-16T07:10:18.829Z,2.26
2023-02-16T07:11:23.403Z,2.22
2023-02-16T07:12:26.767Z,2.28
2023-02-16T07:13:33.198Z,2.49
2023-02-16T07:14:36.922Z,2.61
2023-02-16T07:15:41.569Z,2.64
2023-02-16T07:16:46.977Z,2.37
2023-02-16T07:17:51.330Z,2.44
2023-02-16T07:18:55.281Z,2.41
2023-02-16T07:20:00.007Z,2.41
2023-02-16T07:21:03.755Z,2.44
2023-02-16T07:22:07.471Z,2.39
2023-02-16T07:23:10.000Z,2.40
2023-02-16T07:24:12.843Z,2.27
2023-02-16T07:25:16.257Z,2.28
2023-02-16T07:26:20.070Z,2.43
2023-02-16T07:27:24.208Z,2.61
2023-02-16T07:28:27.916Z,2.68
2023-02-16T07:29:31.423Z,2.80
2023-02-16T07:30:34.688Z,2.77
2023-02-16T07:31:40.818Z,2.85
2023-02-16T07:32:44.443Z,2.76
2023-02-16T07:33:48.164Z,2.82
2023-02-16T07:34:51.491Z,2.82
2023-02-16T07:35:55.064Z,2.94
2023-02-16T07:37:00.009Z,2.96
2023-02-16T07:38:03.766Z,2.96
2023-02-16T07:39:08.607Z,2.98
2023-02-16T07:40:12.094Z,3.00
2023-02-16T07:41:18.431Z,3.03
2023-02-16T07:42:25.267Z,2.88
2023-02-16T07:43:28.401Z,2.86
2023-02-16T07:44:31.530Z,2.76
2023-02-16T07:45:36.890Z,2.83
2023-02-16T07:46:41.286Z,2.99
2023-02-16T07:47:43.745Z,3.06
2023-02-16T07:48:49.700Z,3.10
2023-02-16T07:49:53.473Z,3.14
2023-02-16T07:50:56.974Z,3.07
2023-02-16T07:52:00.377Z,2.96
2023-02-16T07:53:04.300Z,3.03
2023-02-16T07:54:07.807Z,3.15
2023-02-16T07:55:12.044Z,3.17
2023-02-16T07:56:19.828Z,3.15
2023-02-16T07:57:26.573Z,3.20
2023-02-16T07:58:30.105Z,3.07
2023-02-16T07:59:35.564Z,3.26
2023-02-16T08:00:39.289Z,3.40
2023-02-16T08:01:43.193Z,3.36
2023-02-16T08:02:46.985Z,3.44
2023-02-16T08:03:50.733Z,3.60
2023-02-16T08:04:54.796Z,3.68
2023-02-16T08:06:03.289Z,3.65
2023-02-16T08:07:08.769Z,3.59
2023-02-16T08:08:11.559Z,3.79
2023-02-16T08:09:14.631Z,3.91
2023-02-16T08:10:19.169Z,3.75
2023-02-16T08:11:24.356Z,3.36
2023-02-16T08:12:28.643Z,3.45
2023-02-16T08:13:31.889Z,3.46
2023-02-16T08:14:35.153Z,3.33
2023-02-16T08:15:37.553Z,3.57
2023-02-16T08:16:39.962Z,3.69
2023-02-16T08:17:44.282Z,3.83
2023-02-16T08:18:47.955Z,3.99
2023-02-16T08:19:53.548Z,4.13
2023-02-16T08:21:04.219Z,4.12
2023-02-16T08:22:03.901Z,4.11
2023-02-16T08:23:08.335Z,3.85
2023-02-16T08:24:13.106Z,3.64
2023-02-16T08:25:16.715Z,3.77
2023-02-16T08:26:20.429Z,4.09
2023-02-16T08:27:22.784Z,4.35
2023-02-16T08:28:27.319Z,4.48
2023-02-16T08:29:30.909Z,4.57
2023-02-16T08:30:34.379Z,4.66
2023-02-16T08:31:37.695Z,4.41
2023-02-16T08:32:41.049Z,4.07
2023-02-16T08:34:04.955Z,4.31
2023-02-16T08:35:09.154Z,4.29
2023-02-16T08:36:23.205Z,4.21
2023-02-16T08:37:26.186Z,4.17
2023-02-16T08:38:28.952Z,4.06
2023-02-16T08:39:34.559Z,4.34
2023-02-16T08:40:37.918Z,4.12
2023-02-16T08:41:42.790Z,4.00
2023-02-16T08:42:47.084Z,4.29
2023-02-16T08:43:49.922Z,4.50
2023-02-16T08:44:53.793Z,4.59
2023-02-16T08:45:57.893Z,4.63
2023-02-16T08:47:01.805Z,4.52
2023-02-16T08:48:06.049Z,4.32
2023-02-16T08:49:09.846Z,4.44
2023-02-16T08:50:13.141Z,4.58
2023-02-16T08:51:18.755Z,4.53
2023-02-16T08:52:22.483Z,4.35
2023-02-16T08:53:27.733Z,4.42
2023-02-16T08:54:34.534Z,4.40
2023-02-16T08:55:38.818Z,4.27
2023-02-16T08:56:43.563Z,4.29
2023-02-16T08:57:46.762Z,4.41
2023-02-16T08:58:50.298Z,4.66
2023-02-16T08:59:56.697Z,4.67
2023-02-16T09:01:01.845Z,4.65
2023-02-16T09:02:06.823Z,4.80
2023-02-16T09:03:10.297Z,4.84
2023-02-16T09:04:14.280Z,4.78
2023-02-16T09:05:17.605Z,4.80
2023-02-16T09:06:22.992Z,4.82
2023-02-16T09:07:25.626Z,4.88
2023-02-16T09:08:29.018Z,4.91
2023-02-16T09:09:33.134Z,4.82
2023-02-16T09:10:36.625Z,4.89
2023-02-16T09:11:40.169Z,4.87
2023-02-16T09:12:44.614Z,4.39
2023-02-16T09:13:48.433Z,4.11
2023-02-16T09:14:53.413Z,4.24
2023-02-16T09:15:58.262Z,4.55
2023-02-16T09:17:01.518Z,4.83
2023-02-16T09:18:04.434Z,4.93
2023-02-16T09:19:07.302Z,4.90
2023-02-16T09:20:13.213Z,4.88
2023-02-16T09:21:18.441Z,5.02
2023-02-16T09:22:22.206Z,5.09
2023-02-16T09:23:27.311Z,4.88
2023-02-16T09:24:32.987Z,4.70
2023-02-16T09:25:55.601Z,4.59
2023-02-16T09:27:00.125Z,4.72
2023-02-16T09:28:04.078Z,4.97
2023-02-16T09:29:07.618Z,5.16
2023-02-16T09:30:12.148Z,5.28
2023-02-16T09:31:17.583Z,5.39
2023-02-16T09:32:20.288Z,5.00
2023-02-16T09:33:23.409Z,4.97
2023-02-16T09:34:28.198Z,4.93
2023-02-16T09:35:30.493Z,5.04
2023-02-16T09:36:33.678Z,5.22
2023-02-16T09:37:37.085Z,5.27
2023-02-16T09:38:40.492Z,5.22
2023-02-16T09:39:45.350Z,4.78
2023-02-16T09:40:49.745Z,4.81
2023-02-16T09:42:06.446Z,4.90
2023-02-16T09:43:12.148Z,5.06
2023-02-16T09:44:25.265Z,5.27
2023-02-16T09:45:30.403Z,5.33
2023-02-16T09:46:33.569Z,5.23
2023-02-16T09:47:39.588Z,5.23
2023-02-16T09:48:45.494Z,5.38
2023-02-16T09:49:49.888Z,5.65
2023-02-16T09:50:55.104Z,5.56
2023-02-16T09:52:12.053Z,5.63
2023-02-16T09:53:19.041Z,5.77
2023-02-16T09:54:27.204Z,5.72
2023-02-16T09:55:46.580Z,5.72
2023-02-16T09:56:52.653Z,5.70
2023-02-16T09:57:57.778Z,5.60
2023-02-16T09:59:05.765Z,5.74
2023-02-16T10:00:27.454Z,5.30
2023-02-16T10:01:40.500Z,5.41
2023-02-16T10:02:51.040Z,5.42
2023-02-16T10:03:57.284Z,5.64
2023-02-16T10:05:14.739Z,5.70
2023-02-16T10:06:19.023Z,5.75
2023-02-16T10:07:27.445Z,5.78
2023-02-16T10:08:32.940Z,5.69
2023-02-16T10:09:36.622Z,5.75
2023-02-16T10:10:58.224Z,5.88
2023-02-16T10:12:06.141Z,5.82
2023-02-16T10:14:33.103Z,5.82
2023-02-16T10:15:38.166Z,5.67
2023-02-16T10:16:42.273Z,5.82
2023-02-16T10:17:47.592Z,5.72
2023-02-16T10:18:52.438Z,5.59
2023-02-16T10:19:57.905Z,5.63
2023-02-16T10:21:03.382Z,5.55
2023-02-16T10:22:09.000Z,5.54
2023-02-16T10:23:19.536Z,5.52
2023-02-16T10:24:23.838Z,5.67
2023-02-16T10:25:31.934Z,6.13
2023-02-16T10:26:37.219Z,5.98
2023-02-16T10:27:42.415Z,5.89
2023-02-16T10:28:54.994Z,5.78
2023-02-16T10:29:59.637Z,6.06
2023-02-16T10:31:09.484Z,6.32
2023-02-16T10:32:16.581Z,6.22
2023-02-16T10:33:24.988Z,6.33
2023-02-16T10:34:32.143Z,6.10
2023-02-16T10:35:52.267Z,5.95
2023-02-16T10:36:57.429Z,5.84
2023-02-16T10:38:10.039Z,6.08
2023-02-16T10:39:15.210Z,6.30
2023-02-16T10:40:23.212Z,6.56
2023-02-16T10:41:36.619Z,6.34
2023-02-16T10:42:46.922Z,6.09
2023-02-16T10:44:09.907Z,5.76
2023-02-16T10:45:18.484Z,5.76
2023-02-16T10:46:26.087Z,5.78
2023-02-16T10:47:35.542Z,5.74
2023-02-16T10:48:40.145Z,6.33
2023-02-16T10:49:45.237Z,6.48
2023-02-16T10:50:58.185Z,6.52
2023-02-16T10:52:02.900Z,6.29
2023-02-16T10:53:09.668Z,6.11
2023-02-16T10:54:13.786Z,5.93
2023-02-16T10:55:18.565Z,5.91
2023-02-16T10:56:23.930Z,5.92
2023-02-16T10:57:29.267Z,5.88
2023-02-16T10:58:36.988Z,5.85
2023-02-16T10:59:41.544Z,5.84
2023-02-16T11:00:58.011Z,5.90
2023-02-16T11:02:02.137Z,5.98
2023-02-16T11:03:07.680Z,5.99
2023-02-16T11:04:13.180Z,6.04
2023-02-16T11:05:34.066Z,6.07
2023-02-16T11:06:37.466Z,6.03
2023-02-16T11:07:43.651Z,5.88
2023-02-16T11:08:47.609Z,5.98
2023-02-16T11:09:55.725Z,6.05
2023-02-16T11:11:01.307Z,6.26
2023-02-16T11:12:19.222Z,6.39
2023-02-16T11:13:29.280Z,6.12
2023-02-16T11:14:33.249Z,6.13
2023-02-16T11:15:37.873Z,5.90
2023-02-16T11:16:42.072Z,6.05
2023-02-16T11:17:53.448Z,6.18
2023-02-16T11:18:58.738Z,6.38
2023-02-16T11:20:04.960Z,6.39
2023-02-16T11:21:09.512Z,6.27
2023-02-16T11:22:14.685Z,6.35
2023-02-16T11:23:20.610Z,6.22
2023-02-16T11:24:34.767Z,6.10
2023-02-16T11:25:38.787Z,6.35
2023-02-16T11:26:42.316Z,6.27
2023-02-16T11:27:52.223Z,6.34
2023-02-16T11:28:57.429Z,6.33
2023-02-16T11:30:18.684Z,6.15
2023-02-16T11:31:24.032Z,6.00
2023-02-16T11:32:28.849Z,6.04
2023-02-16T11:33:32.553Z,6.18
2023-02-16T11:34:37.423Z,6.34
2023-02-16T11:35:42.953Z,6.44
2023-02-16T11:36:47.772Z,6.26
2023-02-16T11:37:50.975Z,6.25
2023-02-16T11:39:01.206Z,6.29
2023-02-16T11:40:06.545Z,6.32
2023-02-16T11:41:10.978Z,6.45
2023-02-16T11:42:22.873Z,6.60
2023-02-16T11:43:36.810Z,6.56
2023-02-16T11:44:42.832Z,6.03
2023-02-16T11:45:47.268Z,6.02
2023-02-16T11:46:49.505Z,5.99
2023-02-16T11:47:56.438Z,5.78
2023-02-16T11:49:02.152Z,5.75
2023-02-16T11:50:06.279Z,5.88
2023-02-16T11:51:11.464Z,5.91
2023-02-16T11:52:24.687Z,5.96
2023-02-16T11:53:29.325Z,6.04
2023-02-16T11:54:33.551Z,6.12
2023-02-16T11:55:39.097Z,6.04
2023-02-16T11:56:42.269Z,6.03
2023-02-16T11:57:45.738Z,5.94
2023-02-16T11:58:55.125Z,5.84
2023-02-16T12:00:00.128Z,5.74
2023-02-16T12:01:21.656Z,5.94
2023-02-16T12:02:25.990Z,6.10
2023-02-16T12:03:41.620Z,6.22
2023-02-16T12:04:46.953Z,6.31
2023-02-16T12:06:02.316Z,6.34
2023-02-16T12:07:16.970Z,5.98
2023-02-16T12:08:41.227Z,5.92
2023-02-16T12:09:48.316Z,5.93
2023-02-16T12:11:00.098Z,6.09
2023-02-16T12:12:08.081Z,6.17
2023-02-16T12:13:16.314Z,6.12
2023-02-16T12:14:38.326Z,6.03
2023-02-16T12:15:48.678Z,6.28
2023-02-16T12:17:10.359Z,6.32
2023-02-16T12:18:21.692Z,6.29
2023-02-16T12:19:44.788Z,6.35
2023-02-16T12:20:52.756Z,6.38
2023-02-16T12:21:58.112Z,6.35
2023-02-16T12:23:12.479Z,6.10
2023-02-16T12:24:33.019Z,5.96
2023-02-16T12:25:44.056Z,5.94
2023-02-16T12:26:58.925Z,5.93
2023-02-16T12:28:05.463Z,5.72
2023-02-16T12:29:12.554Z,5.71
2023-02-16T12:30:24.840Z,5.60
2023-02-16T12:31:35.161Z,5.51
2023-02-16T12:32:57.493Z,5.54
2023-02-16T12:34:05.706Z,5.64
2023-02-16T12:35:10.569Z,5.70
2023-02-16T12:36:17.295Z,5.66
2023-02-16T12:37:27.955Z,5.55
2023-02-16T12:38:40.493Z,5.49
2023-02-16T12:39:46.016Z,5.34
2023-02-16T12:41:00.266Z,5.50
2023-02-16T12:42:09.344Z,5.54
2023-02-16T12:43:30.864Z,5.35
2023-02-16T12:44:38.155Z,5.42
2023-02-16T12:45:42.695Z,5.32
2023-02-16T12:46:47.973Z,5.37
2023-02-16T12:47:54.006Z,5.48
2023-02-16T12:49:05.412Z,5.41
2023-02-16T12:50:22.916Z,5.26
2023-02-16T12:51:30.176Z,5.23
2023-02-16T12:52:41.406Z,5.27
2023-02-16T12:54:02.910Z,5.30
2023-02-16T12:55:12.637Z,5.38
2023-02-16T12:56:23.898Z,5.37
2023-02-16T12:57:30.554Z,5.38
2023-02-16T12:58:35.404Z,5.47
2023-02-16T12:59:46.517Z,5.59
2023-02-16T13:00:54.054Z,5.68
2023-02-16T13:01:59.388Z,5.62
2023-02-16T13:03:22.018Z,5.60
2023-02-16T13:04:27.395Z,5.63
2023-02-16T13:05:33.996Z,5.48
2023-02-16T13:06:40.153Z,5.56
2023-02-16T13:07:47.978Z,5.68
2023-02-16T13:08:57.712Z,5.44
2023-02-16T13:10:19.373Z,5.49
2023-02-16T13:11:23.853Z,5.47
2023-02-16T13:12:28.275Z,5.39
2023-02-16T13:13:34.736Z,5.34
2023-02-16T13:14:40.838Z,5.35
2023-02-16T13:15:49.782Z,5.23
2023-02-16T13:17:01.677Z,5.07
2023-02-16T13:18:07.013Z,4.99
2023-02-16T13:19:15.010Z,5.06
2023-02-16T13:20:21.395Z,5.27
2023-02-16T13:21:33.376Z,5.29
2023-02-16T13:22:38.467Z,5.26
2023-02-16T13:23:55.976Z,5.11
2023-02-16T13:25:20.260Z,5.10
2023-02-16T13:26:33.640Z,5.11
2023-02-16T13:27:44.722Z,5.08
2023-02-16T13:28:56.286Z,5.04
2023-02-16T13:30:06.170Z,5.07
2023-02-16T13:31:23.564Z,5.00
2023-02-16T13:32:29.022Z,4.99
2023-02-16T13:33:39.354Z,4.88
2023-02-16T13:34:59.948Z,4.89
2023-02-16T13:36:15.255Z,5.01
2023-02-16T13:37:21.593Z,5.02
2023-02-16T13:38:26.768Z,5.06
2023-02-16T13:39:37.376Z,4.94
2023-02-16T13:40:51.952Z,4.89
2023-02-16T13:41:57.324Z,4.97
2023-02-16T13:43:16.301Z,5.00
2023-02-16T13:44:21.683Z,4.96
2023-02-16T13:45:28.223Z,4.81
2023-02-16T13:46:32.986Z,4.97
2023-02-16T13:47:37.838Z,4.86
2023-02-16T13:48:48.545Z,4.97
2023-02-16T13:49:52.676Z,4.95
2023-02-16T13:50:57.264Z,4.95
2023-02-16T13:52:00.004Z,4.97
2023-02-16T13:53:11.590Z,4.77
2023-02-16T13:54:23.951Z,4.82
2023-02-16T13:55:34.991Z,4.95
2023-02-16T13:56:38.780Z,4.88
2023-02-16T13:57:50.582Z,4.93
2023-02-16T13:58:54.662Z,4.83
2023-02-16T14:00:01.828Z,4.89
2023-02-16T14:01:11.224Z,4.79
2023-02-16T14:02:16.661Z,4.66
2023-02-16T14:03:23.091Z,4.80
2023-02-16T14:04:28.340Z,4.80
2023-02-16T14:05:35.436Z,4.85
2023-02-16T14:06:40.516Z,4.93
2023-02-16T14:07:49.655Z,4.75
2023-02-16T14:09:13.863Z,4.72
2023-02-16T14:10:17.867Z,4.69
2023-02-16T14:11:20.652Z,4.69
2023-02-16T14:12:28.018Z,4.69
2023-02-16T14:13:41.837Z,4.79
2023-02-16T14:14:48.667Z,4.89
2023-02-16T14:15:56.345Z,4.90
2023-02-16T14:17:17.440Z,4.79
2023-02-16T14:18:21.771Z,4.81
2023-02-16T14:19:26.666Z,4.81
2023-02-16T14:20:31.626Z,4.74
2023-02-16T14:21:36.579Z,4.79
2023-02-16T14:22:48.022Z,4.69
2023-02-16T14:23:55.287Z,4.66
2023-02-16T14:25:00.985Z,4.70
2023-02-16T14:26:06.120Z,4.76
2023-02-16T14:27:11.811Z,4.76
2023-02-16T14:28:31.660Z,4.83
2023-02-16T14:29:40.901Z,4.77
2023-02-16T14:30:46.220Z,4.75
2023-02-16T14:31:50.694Z,4.72
2023-02-16T14:33:17.756Z,4.69
2023-02-16T14:34:22.912Z,4.65
2023-02-16T14:35:27.362Z,4.44
2023-02-16T14:36:30.432Z,4.48
2023-02-16T14:37:35.621Z,4.49
2023-02-16T14:38:42.464Z,4.41
2023-02-16T14:40:06.575Z,4.35
2023-02-16T14:40:57.015Z,4.36
2023-02-16T14:42:02.104Z,4.35
2023-02-16T14:43:07.261Z,4.23
2023-02-16T14:44:13.985Z,4.30
2023-02-16T14:45:25.554Z,4.36
2023-02-16T14:46:30.553Z,4.39
2023-02-16T14:47:37.537Z,4.28
2023-02-16T14:48:49.419Z,4.30
2023-02-16T14:50:01.710Z,4.34
2023-02-16T14:51:12.098Z,4.38
2023-02-16T14:52:20.743Z,4.27
2023-02-16T14:53:44.704Z,4.34
2023-02-16T14:54:55.937Z,4.30